Time;durP1;ratioP1;P1;durP2;ratioP2;P2;SDS_P1;SDS_P2;PMS_P1;PMS_P2;Temp;Humidity;BMP_temperature;BMP_pressure;BME280_temperature;BME280_humidity;BME280_pressure;Samples;Min_cycle;Max_cycle;Signal;HPM_P1;HPM_P2
2022/04/13 00:01:08;;;;;;;;;;;6.20;99.90;;;;;;2621584;46;19941;31
2022/04/13 00:04:08;;;;;;;;;;;6.20;99.90;;;;;;2603012;54;19957;31
2022/04/13 00:06:46;;;;;;;;;;;6.20;99.90;;;;;;2791685;31;20512;31
2022/04/13 00:09:36;;;;;;;;;;;6.10;99.90;;;;;;2602965;54;21795;31
2022/04/13 00:21:35;;;;;;;;;;;6.00;99.90;;;;;;2602919;54;20753;31
2022/04/13 00:24:28;;;;;;;;;;;5.90;99.90;;;;;;2701410;39;21236;31
2022/04/13 00:42:45;;;;;;;;;;;5.70;99.90;;;;;;2602511;54;19949;31
2022/04/13 00:48:20;;;;;;;;;;;5.60;99.90;;;;;;2602913;54;19993;31
2022/04/13 00:51:48;;;;;;;;;;;;;;;;;;;;;
2022/04/13 01:07:09;;;;;;;;;;;5.50;99.90;;;;;;2602716;54;19952;31
2022/04/13 01:10:05;;;;;;;;;;;;;;;;;;;;;
2022/04/13 01:13:01;;;;;;;;;;;5.40;99.90;;;;;;2602744;54;20832;31
2022/04/13 01:21:59;;;;;;;;;;;5.30;99.90;;;;;;2606716;46;19934;31
2022/04/13 01:27:47;;;;;;;;;;;5.30;99.90;;;;;;2720043;39;21266;31
2022/04/13 01:30:29;;;;;;;;;;;5.20;99.90;;;;;;2602642;54;19989;31
2022/04/13 01:36:08;;;;;;;;;;;5.20;99.90;;;;;;2606223;46;19935;31
2022/04/13 01:51:21;;;;;;;;;;;5.00;99.90;;;;;;2602795;54;22305;31
2022/04/13 01:54:41;;;;;;;;;;;5.00;99.90;;;;;;2602946;47;20702;31
2022/04/13 02:13:03;;;;;;;;;;;4.90;99.90;;;;;;2621474;46;20804;31
2022/04/13 02:18:58;;;;;;;;;;;4.80;99.90;;;;;;2603738;54;22263;31
2022/04/13 02:24:57;;;;;;;;;;;4.80;99.90;;;;;;2620567;46;19930;31
2022/04/13 02:49:56;;;;;;;;;;;4.60;99.90;;;;;;2603505;54;22339;31
2022/04/13 03:02:08;;;;;;;;;;;4.40;99.90;;;;;;2603060;54;19930;31
2022/04/13 03:10:24;;;;;;;;;;;4.40;99.90;;;;;;2602747;54;19949;31
2022/04/13 03:16:31;;;;;;;;;;;4.30;99.90;;;;;;2603305;54;20790;31
2022/04/13 03:32:16;;;;;;;;;;;4.20;99.90;;;;;;2603264;54;19937;31
2022/04/13 03:44:44;;;;;;;;;;;4.00;99.90;;;;;;2603181;54;20500;31
2022/04/13 03:47:54;;;;;;;;;;;4.00;99.90;;;;;;2603020;54;19934;31
2022/04/13 03:50:35;;;;;;;;;;;4.10;99.90;;;;;;2701753;39;21443;31
2022/04/13 04:05:59;;;;;;;;;;;3.90;99.90;;;;;;2603051;54;19941;31
2022/04/13 04:11:52;;;;;;;;;;;3.90;99.90;;;;;;2702043;39;21277;31
2022/04/13 04:14:31;;;;;;;;;;;3.90;99.90;;;;;;2602576;54;19939;31
2022/04/13 04:20:07;;;;;;;;;;;3.90;99.90;;;;;;2603200;54;19931;31
2022/04/13 04:26:05;;;;;;;;;;;3.80;99.90;;;;;;2603157;54;19943;31
2022/04/13 04:32:01;;;;;;;;;;;3.90;99.90;;;;;;2621755;46;19941;31
2022/04/13 04:37:34;;;;;;;;;;;3.90;99.90;;;;;;2603031;54;19939;31
2022/04/13 04:40:13;;;;;;;;;;;4.00;99.90;;;;;;2618934;46;19941;31
2022/04/13 04:43:03;;;;;;;;;;;4.10;99.90;;;;;;2603287;54;19942;31
2022/04/13 04:45:38;;;;;;;;;;;4.30;99.90;;;;;;2602959;54;20682;31
2022/04/13 04:48:18;;;;;;;;;;;4.40;99.90;;;;;;2602827;54;20803;31
2022/04/13 04:51:04;;;;;;;;;;;4.50;99.90;;;;;;2602926;54;19988;31
2022/04/13 04:53:48;;;;;;;;;;;4.60;99.90;;;;;;2602968;54;19941;31
2022/04/13 04:56:23;;;;;;;;;;;4.70;99.90;;;;;;2602801;54;20029;31
2022/04/13 04:58:58;;;;;;;;;;;4.90;99.90;;;;;;2602861;54;19961;31
2022/04/13 05:07:35;;;;;;;;;;;5.40;99.90;;;;;;2791370;31;22412;31
2022/04/13 05:10:37;;;;;;;;;;;5.60;99.90;;;;;;2620895;46;20850;31
2022/04/13 05:13:34;;;;;;;;;;;5.70;99.90;;;;;;2602964;54;20820;31
2022/04/13 05:19:23;;;;;;;;;;;5.90;99.90;;;;;;2701369;39;21315;31
2022/04/13 05:22:20;;;;;;;;;;;6.10;99.90;;;;;;2603138;54;19992;31
2022/04/13 05:25:21;;;;;;;;;;;6.40;99.90;;;;;;2602848;54;19939;31
2022/04/13 06:50:36;;;;;;;;;;;12.20;99.90;;;;;;2602258;54;19945;31
2022/04/13 07:00:17;;;;;;;;;;;12.80;99.90;;;;;;2602758;54;19938;31
2022/04/13 07:03:08;;;;;;;;;;;13.20;99.90;;;;;;2602636;54;21214;31
2022/04/13 07:05:59;;;;;;;;;;;13.40;99.90;;;;;;2603183;54;19937;31
2022/04/13 07:23:04;;;;;;;;;;;14.40;98.40;;;;;;2602650;54;19946;31
2022/04/13 07:28:37;;;;;;;;;;;14.70;97.20;;;;;;2609640;46;20002;31
2022/04/13 07:31:16;;;;;;;;;;;14.70;96.30;;;;;;2621911;46;20749;31
2022/04/13 07:40:19;;;;;;;;;;;15.20;95.50;;;;;;2603613;54;19938;31
2022/04/13 08:04:29;;;;;;;;;;;16.10;92.20;;;;;;2600690;54;20729;31
2022/04/13 08:10:31;;;;;;;;;;;16.50;91.00;;;;;;2602899;54;20516;31
2022/04/13 08:16:28;;;;;;;;;;;16.80;89.00;;;;;;2603140;54;20776;31
2022/04/13 08:19:16;;;;;;;;;;;16.80;88.30;;;;;;2603251;54;20583;31
2022/04/13 08:21:55;;;;;;;;;;;16.70;89.80;;;;;;2621488;46;19990;31
2022/04/13 08:24:33;;;;;;;;;;;16.80;88.20;;;;;;2604481;46;19949;31
2022/04/13 08:27:17;;;;;;;;;;;16.80;87.80;;;;;;2603255;54;20784;31
2022/04/13 08:29:53;;;;;;;;;;;16.90;87.10;;;;;;2603186;54;19938;31
2022/04/13 08:35:30;;;;;;;;;;;17.10;85.10;;;;;;2621612;46;20008;31
2022/04/13 08:38:09;;;;;;;;;;;17.00;85.60;;;;;;2603100;54;19985;31
2022/04/13 08:43:58;;;;;;;;;;;17.20;85.00;;;;;;2603013;54;19986;31
2022/04/13 09:10:10;;;;;;;;;;;17.40;80.60;;;;;;2602162;54;19931;31
2022/04/13 09:12:48;;;;;;;;;;;17.50;81.80;;;;;;2621437;46;19935;31
2022/04/13 09:24:31;;;;;;;;;;;18.00;80.60;;;;;;2621725;46;19934;31
2022/04/13 09:30:03;;;;;;;;;;;18.30;79.40;;;;;;2631100;39;20397;-93
2022/04/13 09:32:53;;;;;;;;;;;18.40;79.60;;;;;;2603000;54;19990;31
2022/04/13 09:35:34;;;;;;;;;;;18.40;79.10;;;;;;2602366;54;19942;31
2022/04/13 09:38:27;;;;;;;;;;;18.60;78.50;;;;;;2602158;54;20769;31
2022/04/13 09:41:09;;;;;;;;;;;18.60;77.70;;;;;;2602931;54;20753;31
2022/04/13 09:46:52;;;;;;;;;;;18.90;78.00;;;;;;2602903;54;19942;31
2022/04/13 09:49:55;;;;;;;;;;;18.90;77.40;;;;;;2602925;54;19958;31
2022/04/13 09:52:36;;;;;;;;;;;18.90;76.60;;;;;;2603113;54;19935;31
2022/04/13 09:55:30;;;;;;;;;;;19.00;77.90;;;;;;2602321;54;19938;31
2022/04/13 10:00:43;;;;;;;;;;;19.20;76.00;;;;;;2602991;54;19990;31
2022/04/13 10:03:20;;;;;;;;;;;19.30;77.20;;;;;;2620964;47;20056;31
2022/04/13 10:05:56;;;;;;;;;;;19.40;75.50;;;;;;2621522;47;20760;31
2022/04/13 10:08:37;;;;;;;;;;;19.40;74.70;;;;;;2621277;47;19934;31
2022/04/13 10:11:15;;;;;;;;;;;19.40;72.90;;;;;;2602215;54;20037;31
2022/04/13 10:13:53;;;;;;;;;;;19.40;75.00;;;;;;2602655;54;20038;31
2022/04/13 10:28:55;;;;;;;;;;;19.60;73.10;;;;;;2603588;54;19985;31
2022/04/13 10:43:29;;;;;;;;;;;19.60;70.60;;;;;;2622079;46;20798;31
2022/04/13 10:46:07;;;;;;;;;;;19.60;72.50;;;;;;2603647;46;19993;31
2022/04/13 10:48:54;;;;;;;;;;;19.60;69.30;;;;;;2612254;46;19931;31
2022/04/13 10:54:20;;;;;;;;;;;19.70;71.40;;;;;;2603371;54;20750;31
2022/04/13 10:56:58;;;;;;;;;;;19.80;71.60;;;;;;2621713;46;19943;31
2022/04/13 10:59:37;;;;;;;;;;;19.80;72.70;;;;;;2603497;54;20765;31
2022/04/13 11:02:41;;;;;;;;;;;19.70;69.50;;;;;;2603601;54;19941;31
2022/04/13 11:08:25;;;;;;;;;;;19.70;70.80;;;;;;2602741;54;19942;31
2022/04/13 11:16:50;;;;;;;;;;;19.80;69.80;;;;;;2603315;54;20021;31
2022/04/13 11:19:37;;;;;;;;;;;19.70;70.10;;;;;;2602784;54;20715;31
2022/04/13 11:22:25;;;;;;;;;;;;;;;;;;;;;
2022/04/13 11:25:06;;;;;;;;;;;19.60;70.30;;;;;;2603135;54;19943;31
2022/04/13 11:31:01;;;;;;;;;;;19.70;69.70;;;;;;2622075;46;19958;31
2022/04/13 11:36:20;;;;;;;;;;;19.60;70.50;;;;;;2603520;54;19957;31
2022/04/13 11:39:28;;;;;;;;;;;19.60;70.40;;;;;;2603393;54;20730;31
2022/04/13 11:47:41;;;;;;;;;;;19.60;69.80;;;;;;2603525;54;19938;31
2022/04/13 11:50:20;;;;;;;;;;;19.60;70.70;;;;;;2603128;54;19943;31
2022/04/13 11:52:58;;;;;;;;;;;19.60;70.60;;;;;;2621131;46;20760;31
2022/04/13 11:55:36;;;;;;;;;;;19.60;69.50;;;;;;2603339;54;19993;31
2022/04/13 12:01:14;;;;;;;;;;;19.50;68.20;;;;;;2603364;54;19946;31
2022/04/13 12:10:07;;;;;;;;;;;19.50;68.00;;;;;;2602693;54;19937;31
2022/04/13 12:12:46;;;;;;;;;;;19.50;68.30;;;;;;2609743;46;20754;31
2022/04/13 12:15:33;;;;;;;;;;;19.50;68.00;;;;;;2602428;54;19942;31
2022/04/13 12:18:10;;;;;;;;;;;19.50;69.80;;;;;;2603688;54;19934;31
2022/04/13 12:20:51;;;;;;;;;;;19.60;69.50;;;;;;2603527;54;19961;31
2022/04/13 12:23:38;;;;;;;;;;;19.60;70.70;;;;;;2603195;54;19935;31
2022/04/13 12:26:20;;;;;;;;;;;19.60;69.10;;;;;;2621309;46;20692;31
2022/04/13 12:28:56;;;;;;;;;;;19.60;68.90;;;;;;2621967;46;20723;31
2022/04/13 12:31:31;;;;;;;;;;;19.60;67.80;;;;;;2621440;46;19942;31
2022/04/13 12:34:07;;;;;;;;;;;19.60;67.10;;;;;;2603451;54;19942;31
2022/04/13 12:36:44;;;;;;;;;;;19.60;67.60;;;;;;2621708;46;19935;31
2022/04/13 12:39:25;;;;;;;;;;;19.70;67.00;;;;;;2603220;54;19935;31
2022/04/13 12:44:54;;;;;;;;;;;19.70;66.70;;;;;;2701356;39;20452;31
2022/04/13 12:47:31;;;;;;;;;;;19.60;67.00;;;;;;2603280;54;20014;31
2022/04/13 12:50:08;;;;;;;;;;;19.70;67.30;;;;;;2603148;54;20874;31
2022/04/13 12:52:41;;;;;;;;;;;19.70;68.80;;;;;;2620281;46;20770;31
2022/04/13 12:58:19;;;;;;;;;;;19.70;65.30;;;;;;2602564;54;19935;31
2022/04/13 13:01:00;;;;;;;;;;;19.70;66.50;;;;;;2621685;46;20037;31
2022/04/13 13:03:35;;;;;;;;;;;19.70;66.40;;;;;;2621278;46;19941;31
2022/04/13 13:06:39;;;;;;;;;;;19.80;68.00;;;;;;2603193;54;19961;31
2022/04/13 13:09:20;;;;;;;;;;;19.80;67.20;;;;;;2621517;46;19931;31
2022/04/13 13:18:09;;;;;;;;;;;19.90;64.60;;;;;;2603119;54;20730;31
2022/04/13 13:23:31;;;;;;;;;;;19.70;64.90;;;;;;2603069;54;19938;31
2022/04/13 13:26:31;;;;;;;;;;;19.70;67.00;;;;;;2621607;46;19941;31
2022/04/13 13:29:22;;;;;;;;;;;19.80;65.20;;;;;;2621541;46;20787;31
2022/04/13 13:32:01;;;;;;;;;;;19.80;63.40;;;;;;2621638;46;20646;31
2022/04/13 13:34:39;;;;;;;;;;;19.80;63.10;;;;;;2602474;54;19950;31
2022/04/13 13:37:19;;;;;;;;;;;19.80;62.40;;;;;;2602924;54;19946;31
2022/04/13 13:39:59;;;;;;;;;;;19.80;62.20;;;;;;2603075;54;19954;31
2022/04/13 13:42:44;;;;;;;;;;;19.80;63.80;;;;;;2602324;54;20657;31
2022/04/13 13:45:20;;;;;;;;;;;19.80;65.00;;;;;;2602870;54;20803;31
2022/04/13 13:47:57;;;;;;;;;;;19.80;64.30;;;;;;2602769;54;20785;31
2022/04/13 13:50:42;;;;;;;;;;;19.90;65.90;;;;;;2602970;54;19983;31
2022/04/13 13:53:28;;;;;;;;;;;19.90;63.60;;;;;;2621089;46;19934;31
2022/04/13 13:56:09;;;;;;;;;;;19.80;61.80;;;;;;2621366;47;19994;31
2022/04/13 13:58:46;;;;;;;;;;;19.80;62.80;;;;;;2603740;54;19957;31
2022/04/13 14:01:21;;;;;;;;;;;19.90;64.30;;;;;;2603129;54;20786;31
2022/04/13 14:03:56;;;;;;;;;;;19.90;62.40;;;;;;2603796;54;19958;31
2022/04/13 14:06:32;;;;;;;;;;;19.90;64.10;;;;;;2602798;54;20696;31
2022/04/13 14:09:21;;;;;;;;;;;;;;;;;;;;;
2022/04/13 14:12:00;;;;;;;;;;;19.90;65.70;;;;;;2603704;54;19939;31
2022/04/13 14:14:37;;;;;;;;;;;19.90;65.40;;;;;;2603468;54;19941;31
2022/04/13 14:17:13;;;;;;;;;;;19.90;62.50;;;;;;2603701;54;19942;31
2022/04/13 14:19:51;;;;;;;;;;;19.90;61.70;;;;;;2602856;54;20783;31
2022/04/13 14:22:35;;;;;;;;;;;19.90;64.10;;;;;;2616351;46;20777;31
2022/04/13 14:25:16;;;;;;;;;;;19.90;62.10;;;;;;2622002;46;19993;31
2022/04/13 14:28:09;;;;;;;;;;;19.90;63.00;;;;;;2603760;54;19935;31
2022/04/13 14:39:58;;;;;;;;;;;19.90;56.90;;;;;;2603247;54;21085;31
2022/04/13 14:48:28;;;;;;;;;;;19.80;60.70;;;;;;2603127;54;19989;31
2022/04/13 14:57:43;;;;;;;;;;;19.80;60.10;;;;;;2600768;54;20736;31
2022/04/13 15:03:33;;;;;;;;;;;19.80;59.30;;;;;;2603486;54;19965;31
2022/04/13 15:17:48;;;;;;;;;;;19.90;58.70;;;;;;2601389;54;19993;31
2022/04/13 15:54:24;;;;;;;;;;;19.70;59.80;;;;;;2600795;54;20635;31
2022/04/13 16:32:26;;;;;;;;;;;19.20;63.10;;;;;;2603524;54;19950;31
2022/04/13 16:38:32;;;;;;;;;;;19.20;66.00;;;;;;2603973;54;20987;31
2022/04/13 16:41:23;;;;;;;;;;;19.10;67.00;;;;;;2603356;54;19942;31
2022/04/13 16:44:18;;;;;;;;;;;19.10;67.00;;;;;;2603033;54;20770;31
2022/04/13 16:53:39;;;;;;;;;;;19.00;68.40;;;;;;2603039;54;19993;31
2022/04/13 17:13:51;;;;;;;;;;;18.60;69.90;;;;;;2603827;54;19934;31
2022/04/13 17:16:30;;;;;;;;;;;18.60;70.30;;;;;;2608716;46;19934;31
2022/04/13 17:19:07;;;;;;;;;;;18.60;70.70;;;;;;2602958;54;20747;31
2022/04/13 17:21:44;;;;;;;;;;;18.50;70.70;;;;;;2603028;54;19935;31
2022/04/13 17:27:15;;;;;;;;;;;18.40;71.20;;;;;;2621675;46;20786;31
2022/04/13 17:29:59;;;;;;;;;;;18.30;71.30;;;;;;2621486;46;19941;31
2022/04/13 17:35:56;;;;;;;;;;;18.20;71.60;;;;;;2602289;54;20670;31
2022/04/13 17:38:40;;;;;;;;;;;18.20;72.40;;;;;;2602991;54;19939;31
2022/04/13 17:41:16;;;;;;;;;;;18.10;72.30;;;;;;2603004;54;19935;31
2022/04/13 17:44:07;;;;;;;;;;;18.00;73.20;;;;;;2602811;54;19959;31
2022/04/13 17:46:50;;;;;;;;;;;18.00;72.60;;;;;;2602833;54;22262;31
2022/04/13 17:49:24;;;;;;;;;;;17.90;73.10;;;;;;2602786;54;19934;31
2022/04/13 17:51:57;;;;;;;;;;;17.80;73.10;;;;;;2621446;46;20698;31
2022/04/13 17:54:31;;;;;;;;;;;17.70;73.50;;;;;;2602899;54;19935;31
2022/04/13 17:57:06;;;;;;;;;;;17.60;73.70;;;;;;2602931;54;20018;31
2022/04/13 17:59:42;;;;;;;;;;;17.60;74.10;;;;;;2621627;47;20744;31
2022/04/13 18:02:18;;;;;;;;;;;17.50;74.20;;;;;;2602901;54;19938;31
2022/04/13 18:04:57;;;;;;;;;;;17.40;74.40;;;;;;2620611;47;20906;31
2022/04/13 18:07:31;;;;;;;;;;;17.30;74.60;;;;;;2602788;54;20799;31
2022/04/13 18:10:06;;;;;;;;;;;17.20;74.90;;;;;;2602984;54;20761;31
2022/04/13 18:12:41;;;;;;;;;;;17.10;75.20;;;;;;2602888;54;19935;31
2022/04/13 18:15:16;;;;;;;;;;;17.10;75.30;;;;;;2603070;54;19942;31
2022/04/13 18:17:51;;;;;;;;;;;17.00;75.60;;;;;;2603011;54;19934;31
2022/04/13 18:20:36;;;;;;;;;;;16.90;76.00;;;;;;2602853;54;19935;31
2022/04/13 18:23:16;;;;;;;;;;;16.80;76.30;;;;;;2602786;54;20732;31
2022/04/13 18:25:56;;;;;;;;;;;16.70;76.70;;;;;;2602875;54;19934;31
2022/04/13 18:28:48;;;;;;;;;;;16.60;77.40;;;;;;2621349;47;19938;31
2022/04/13 18:31:22;;;;;;;;;;;16.50;77.90;;;;;;2621460;47;20762;31
2022/04/13 18:33:57;;;;;;;;;;;16.50;78.40;;;;;;2602361;54;19943;31
2022/04/13 18:36:34;;;;;;;;;;;16.30;79.00;;;;;;2602898;54;20735;31
2022/04/13 18:39:12;;;;;;;;;;;16.30;79.10;;;;;;2602684;54;19938;31
2022/04/13 18:41:52;;;;;;;;;;;16.20;79.20;;;;;;2621498;47;19941;31
2022/04/13 18:44:34;;;;;;;;;;;16.20;79.50;;;;;;2621996;47;19993;31
2022/04/13 18:47:13;;;;;;;;;;;16.10;79.90;;;;;;2603771;54;20662;31
2022/04/13 18:49:49;;;;;;;;;;;16.00;80.10;;;;;;2603569;54;20743;31
2022/04/13 18:52:26;;;;;;;;;;;16.10;81.70;;;;;;2603886;54;19941;31
2022/04/13 18:55:05;;;;;;;;;;;16.10;82.00;;;;;;2603553;54;19941;31
2022/04/13 18:57:45;;;;;;;;;;;16.10;80.90;;;;;;2622008;46;19935;31
2022/04/13 19:02:57;;;;;;;;;;;15.90;81.50;;;;;;2621216;46;19961;31
2022/04/13 19:08:35;;;;;;;;;;;15.70;82.60;;;;;;2603211;54;20729;31
2022/04/13 19:11:16;;;;;;;;;;;15.50;83.20;;;;;;2603331;54;19934;31
2022/04/13 19:13:59;;;;;;;;;;;15.40;83.40;;;;;;2720141;39;22238;31
2022/04/13 19:16:36;;;;;;;;;;;15.30;84.10;;;;;;2621876;46;19934;31
2022/04/13 19:19:12;;;;;;;;;;;15.20;84.40;;;;;;2622167;46;19941;31
2022/04/13 19:21:50;;;;;;;;;;;15.10;84.80;;;;;;2621856;46;20784;31
2022/04/13 19:24:25;;;;;;;;;;;15.00;85.30;;;;;;2603395;54;20751;31
2022/04/13 19:26:58;;;;;;;;;;;14.90;85.10;;;;;;2603503;54;20764;31
2022/04/13 19:29:45;;;;;;;;;;;14.80;85.60;;;;;;2603536;54;20006;31
2022/04/13 19:32:23;;;;;;;;;;;14.80;86.00;;;;;;2603395;54;19938;31
2022/04/13 19:35:01;;;;;;;;;;;14.60;86.40;;;;;;2622014;46;19934;31
2022/04/13 19:37:36;;;;;;;;;;;14.60;86.70;;;;;;2603503;54;20658;31
2022/04/13 19:40:16;;;;;;;;;;;14.40;87.50;;;;;;2602571;54;20044;31
2022/04/13 20:07:22;;;;;;;;;;;;;;;;;;;;;
2022/04/13 20:10:06;;;;;;;;;;;13.60;90.20;;;;;;2601373;54;20659;31
2022/04/13 20:12:48;;;;;;;;;;;13.80;90.60;;;;;;2609578;46;20963;31
2022/04/13 20:15:23;;;;;;;;;;;13.40;90.50;;;;;;2602652;54;19942;31
2022/04/13 20:18:03;;;;;;;;;;;13.40;90.70;;;;;;2603515;54;19941;31
2022/04/13 20:20:39;;;;;;;;;;;13.40;90.70;;;;;;2611689;46;20785;31
2022/04/13 20:23:19;;;;;;;;;;;13.30;91.10;;;;;;2603215;54;20752;31
2022/04/13 20:25:57;;;;;;;;;;;13.20;91.50;;;;;;2621950;46;20747;31
2022/04/13 20:28:32;;;;;;;;;;;13.10;91.40;;;;;;2621828;46;20880;31
2022/04/13 20:31:09;;;;;;;;;;;13.00;91.70;;;;;;2603245;54;20717;31
2022/04/13 20:33:45;;;;;;;;;;;12.90;91.90;;;;;;2610274;46;20017;31
2022/04/13 20:36:20;;;;;;;;;;;12.90;92.10;;;;;;2622127;46;20058;31
2022/04/13 20:39:06;;;;;;;;;;;12.80;92.40;;;;;;2621311;46;19938;31
2022/04/13 20:41:51;;;;;;;;;;;12.80;92.30;;;;;;2603269;54;19970;31
2022/04/13 20:44:32;;;;;;;;;;;12.70;92.80;;;;;;2603068;54;20800;31
2022/04/13 20:47:10;;;;;;;;;;;12.60;92.90;;;;;;2621250;46;19942;31
2022/04/13 20:49:51;;;;;;;;;;;12.50;93.20;;;;;;2602379;54;19946;31
2022/04/13 20:52:42;;;;;;;;;;;12.50;93.30;;;;;;2603167;54;19934;31
2022/04/13 20:55:18;;;;;;;;;;;12.40;93.50;;;;;;2602997;54;19941;31
2022/04/13 20:58:00;;;;;;;;;;;12.40;93.80;;;;;;2602921;54;19943;31
2022/04/13 21:00:39;;;;;;;;;;;12.40;93.90;;;;;;2603121;54;19994;31
2022/04/13 21:03:17;;;;;;;;;;;12.30;94.20;;;;;;2621702;46;20004;31
2022/04/13 21:05:56;;;;;;;;;;;12.20;94.20;;;;;;2621475;46;20791;31
2022/04/13 21:11:32;;;;;;;;;;;12.10;94.80;;;;;;2621374;46;20017;31
2022/04/13 21:14:11;;;;;;;;;;;12.10;95.10;;;;;;2621661;46;20780;31
2022/04/13 21:16:48;;;;;;;;;;;12.00;95.00;;;;;;2602947;54;20029;31
2022/04/13 21:19:25;;;;;;;;;;;12.00;95.60;;;;;;2602859;54;19941;31
2022/04/13 21:22:00;;;;;;;;;;;11.90;95.50;;;;;;2621448;46;19934;31
2022/04/13 21:24:37;;;;;;;;;;;11.90;96.00;;;;;;2602127;54;19946;31
2022/04/13 21:27:13;;;;;;;;;;;11.40;96.10;;;;;;2602752;54;19941;31
2022/04/13 21:29:55;;;;;;;;;;;11.80;96.50;;;;;;2602663;54;19934;31
2022/04/13 21:32:35;;;;;;;;;;;11.70;96.80;;;;;;2602839;54;19935;31
2022/04/13 21:35:13;;;;;;;;;;;11.60;96.90;;;;;;2621210;46;19989;31
2022/04/13 21:37:54;;;;;;;;;;;11.60;97.20;;;;;;2621272;46;20021;31
2022/04/13 21:40:32;;;;;;;;;;;11.60;97.00;;;;;;2602142;54;20780;31
2022/04/13 21:43:08;;;;;;;;;;;11.50;97.50;;;;;;2620003;46;19982;31
2022/04/13 21:45:48;;;;;;;;;;;11.50;97.80;;;;;;2603009;54;20690;31
2022/04/13 21:48:24;;;;;;;;;;;11.40;98.00;;;;;;2603024;54;20721;31
2022/04/13 21:51:02;;;;;;;;;;;11.40;98.00;;;;;;2602508;54;19946;31
2022/04/13 21:53:37;;;;;;;;;;;11.30;98.30;;;;;;2602694;54;19935;31
2022/04/13 21:56:17;;;;;;;;;;;11.30;98.40;;;;;;2602747;54;19942;31
2022/04/13 21:58:52;;;;;;;;;;;11.30;98.50;;;;;;2602801;54;20762;31
2022/04/13 22:01:35;;;;;;;;;;;11.30;98.70;;;;;;2621193;47;19934;31
2022/04/13 22:04:14;;;;;;;;;;;11.20;98.70;;;;;;2620967;47;20014;31
2022/04/13 22:06:49;;;;;;;;;;;11.20;98.90;;;;;;2602601;54;20075;31
2022/04/13 22:09:25;;;;;;;;;;;11.10;99.20;;;;;;2620968;47;19942;31
2022/04/13 22:12:01;;;;;;;;;;;11.00;99.30;;;;;;2602749;54;19934;31
2022/04/13 22:14:39;;;;;;;;;;;11.00;99.60;;;;;;2621509;47;19958;31
2022/04/13 22:17:21;;;;;;;;;;;11.00;99.70;;;;;;2602748;54;20781;31
2022/04/13 22:20:01;;;;;;;;;;;11.00;99.90;;;;;;2603449;54;20018;31
2022/04/13 22:22:36;;;;;;;;;;;10.90;99.90;;;;;;2603337;54;19935;31
2022/04/13 22:27:53;;;;;;;;;;;10.80;99.90;;;;;;2603496;54;20758;31
2022/04/13 22:30:29;;;;;;;;;;;10.80;99.90;;;;;;2603132;54;21485;31
2022/04/13 22:35:58;;;;;;;;;;;10.80;99.90;;;;;;2621932;46;19935;31
2022/04/13 22:38:48;;;;;;;;;;;10.80;99.90;;;;;;2603586;54;19957;31
2022/04/13 22:41:25;;;;;;;;;;;10.80;99.90;;;;;;2603476;54;19935;31
2022/04/13 22:44:22;;;;;;;;;;;10.70;99.90;;;;;;2603169;54;19938;31
2022/04/13 22:47:14;;;;;;;;;;;10.70;99.90;;;;;;2603335;54;20776;31
2022/04/13 22:49:57;;;;;;;;;;;10.60;99.90;;;;;;2603310;54;19942;31
2022/04/13 22:52:51;;;;;;;;;;;10.50;99.90;;;;;;2603273;54;20000;31
2022/04/13 22:55:33;;;;;;;;;;;10.50;99.90;;;;;;2791876;31;21599;31
2022/04/13 22:58:16;;;;;;;;;;;10.40;99.90;;;;;;2603224;54;20768;31
2022/04/13 23:00:59;;;;;;;;;;;10.40;99.90;;;;;;2621631;46;19941;31
2022/04/13 23:03:36;;;;;;;;;;;10.30;99.90;;;;;;2603344;54;21764;31
2022/04/13 23:09:09;;;;;;;;;;;10.20;99.90;;;;;;2602962;54;19965;31
2022/04/13 23:14:50;;;;;;;;;;;10.10;99.90;;;;;;2603419;54;19994;31
2022/04/13 23:20:19;;;;;;;;;;;10.10;99.90;;;;;;2602456;54;19997;31
2022/04/13 23:22:54;;;;;;;;;;;10.00;99.90;;;;;;2621697;46;20012;31
2022/04/13 23:25:33;;;;;;;;;;;10.00;99.90;;;;;;2620707;46;20013;31
2022/04/13 23:28:25;;;;;;;;;;;10.00;99.90;;;;;;2603069;54;20664;31
2022/04/13 23:31:04;;;;;;;;;;;9.90;99.90;;;;;;2603243;54;20662;31
2022/04/13 23:33:41;;;;;;;;;;;9.90;99.90;;;;;;2621614;46;19942;31
2022/04/13 23:36:32;;;;;;;;;;;9.90;99.90;;;;;;2620794;46;20810;31
2022/04/13 23:39:12;;;;;;;;;;;9.90;99.90;;;;;;2603268;54;20666;31
2022/04/13 23:41:56;;;;;;;;;;;9.80;99.90;;;;;;2621422;46;19941;31
2022/04/13 23:47:54;;;;;;;;;;;9.70;99.90;;;;;;2621398;46;20765;31
2022/04/13 23:50:35;;;;;;;;;;;9.70;99.90;;;;;;2603098;54;19934;31
2022/04/13 23:53:10;;;;;;;;;;;9.70;99.90;;;;;;2603021;54;20747;31
2022/04/13 23:56:04;;;;;;;;;;;9.60;99.90;;;;;;2603053;54;19941;31
2022/04/13 23:58:54;;;;;;;;;;;;;;;;;;;;;
